sensor_id;sensor_type;location;lat;lon;timestamp;temperature;humidity
29775;DHT22;16676;51.202;6.774;2023-08-24T00:01:43;26.20;53.00
29775;DHT22;16676;51.202;6.774;2023-08-24T00:05:47;26.20;52.90
29775;DHT22;16676;51.202;6.774;2023-08-24T00:09:52;26.30;53.00
29775;DHT22;16676;51.202;6.774;2023-08-24T00:13:54;26.30;53.20
29775;DHT22;16676;51.202;6.774;2023-08-24T00:17:56;26.30;53.30
29775;DHT22;16676;51.202;6.774;2023-08-24T00:22:00;26.30;53.50
29775;DHT22;16676;51.202;6.774;2023-08-24T00:26:02;26.30;53.50
29775;DHT22;16676;51.202;6.774;2023-08-24T00:30:05;26.20;53.50
29775;DHT22;16676;51.202;6.774;2023-08-24T00:34:08;26.20;54.00
29775;DHT22;16676;51.202;6.774;2023-08-24T00:38:11;26.10;54.10
29775;DHT22;16676;51.202;6.774;2023-08-24T00:42:13;26.10;54.10
29775;DHT22;16676;51.202;6.774;2023-08-24T00:46:16;26.10;54.10
29775;DHT22;16676;51.202;6.774;2023-08-24T00:50:18;26.00;54.20
29775;DHT22;16676;51.202;6.774;2023-08-24T00:54:22;26.00;54.50
29775;DHT22;16676;51.202;6.774;2023-08-24T00:58:26;25.90;54.60
29775;DHT22;16676;51.202;6.774;2023-08-24T01:02:28;25.80;54.80
29775;DHT22;16676;51.202;6.774;2023-08-24T01:06:30;25.70;55.00
29775;DHT22;16676;51.202;6.774;2023-08-24T01:10:40;25.80;54.90
29775;DHT22;16676;51.202;6.774;2023-08-24T01:14:54;25.80;55.00
29775;DHT22;16676;51.202;6.774;2023-08-24T01:19:01;25.80;55.00
29775;DHT22;16676;51.202;6.774;2023-08-24T01:23:14;25.80;55.20
29775;DHT22;16676;51.202;6.774;2023-08-24T01:27:21;25.70;55.20
29775;DHT22;16676;51.202;6.774;2023-08-24T01:31:24;25.80;55.20
29775;DHT22;16676;51.202;6.774;2023-08-24T01:35:26;25.80;55.20
29775;DHT22;16676;51.202;6.774;2023-08-24T01:39:31;25.80;55.20
29775;DHT22;16676;51.202;6.774;2023-08-24T01:43:39;25.80;55.20
29775;DHT22;16676;51.202;6.774;2023-08-24T01:47:42;25.80;55.30
29775;DHT22;16676;51.202;6.774;2023-08-24T01:51:44;25.70;55.40
29775;DHT22;16676;51.202;6.774;2023-08-24T01:55:47;25.70;55.70
29775;DHT22;16676;51.202;6.774;2023-08-24T01:59:50;25.60;55.90
29775;DHT22;16676;51.202;6.774;2023-08-24T02:03:52;25.60;56.00
29775;DHT22;16676;51.202;6.774;2023-08-24T02:07:54;25.50;56.20
29775;DHT22;16676;51.202;6.774;2023-08-24T02:11:57;25.40;57.30
29775;DHT22;16676;51.202;6.774;2023-08-24T02:16:04;25.40;56.90
29775;DHT22;16676;51.202;6.774;2023-08-24T02:20:07;25.30;57.00
29775;DHT22;16676;51.202;6.774;2023-08-24T02:24:10;25.30;57.30
29775;DHT22;16676;51.202;6.774;2023-08-24T02:28:12;25.20;57.30
29775;DHT22;16676;51.202;6.774;2023-08-24T02:32:15;25.20;57.40
29775;DHT22;16676;51.202;6.774;2023-08-24T02:36:17;25.30;57.10
29775;DHT22;16676;51.202;6.774;2023-08-24T02:40:19;25.30;57.00
29775;DHT22;16676;51.202;6.774;2023-08-24T02:44:21;25.20;57.20
29775;DHT22;16676;51.202;6.774;2023-08-24T02:48:24;25.20;57.40
29775;DHT22;16676;51.202;6.774;2023-08-24T02:52:26;25.10;57.50
29775;DHT22;16676;51.202;6.774;2023-08-24T02:56:28;25.10;57.40
29775;DHT22;16676;51.202;6.774;2023-08-24T03:00:30;25.10;57.40
29775;DHT22;16676;51.202;6.774;2023-08-24T03:04:33;25.10;57.60
29775;DHT22;16676;51.202;6.774;2023-08-24T03:08:36;25.10;57.60
29775;DHT22;16676;51.202;6.774;2023-08-24T03:12:38;25.00;57.60
29775;DHT22;16676;51.202;6.774;2023-08-24T03:16:40;25.10;57.60
29775;DHT22;16676;51.202;6.774;2023-08-24T03:20:44;25.10;57.20
29775;DHT22;16676;51.202;6.774;2023-08-24T03:24:46;25.10;57.10
29775;DHT22;16676;51.202;6.774;2023-08-24T03:28:48;25.00;57.30
29775;DHT22;16676;51.202;6.774;2023-08-24T03:32:50;24.90;57.50
29775;DHT22;16676;51.202;6.774;2023-08-24T03:36:53;24.90;57.40
29775;DHT22;16676;51.202;6.774;2023-08-24T03:41:00;24.90;57.30
29775;DHT22;16676;51.202;6.774;2023-08-24T03:45:02;25.00;57.40
29775;DHT22;16676;51.202;6.774;2023-08-24T03:49:04;25.00;57.30
29775;DHT22;16676;51.202;6.774;2023-08-24T03:53:07;25.00;57.30
29775;DHT22;16676;51.202;6.774;2023-08-24T03:57:09;24.90;57.60
29775;DHT22;16676;51.202;6.774;2023-08-24T04:01:11;24.90;57.80
29775;DHT22;16676;51.202;6.774;2023-08-24T04:05:13;24.90;58.30
29775;DHT22;16676;51.202;6.774;2023-08-24T04:09:16;24.90;58.80
29775;DHT22;16676;51.202;6.774;2023-08-24T04:13:19;24.50;58.70
29775;DHT22;16676;51.202;6.774;2023-08-24T04:17:20;24.30;59.50
29775;DHT22;16676;51.202;6.774;2023-08-24T04:21:22;24.10;60.60
29775;DHT22;16676;51.202;6.774;2023-08-24T04:25:26;24.10;61.20
29775;DHT22;16676;51.202;6.774;2023-08-24T04:29:27;24.20;61.10
29775;DHT22;16676;51.202;6.774;2023-08-24T04:33:29;24.40;61.20
29775;DHT22;16676;51.202;6.774;2023-08-24T04:37:31;24.40;61.70
29775;DHT22;16676;51.202;6.774;2023-08-24T04:41:34;24.40;62.30
29775;DHT22;16676;51.202;6.774;2023-08-24T04:45:36;24.50;62.10
29775;DHT22;16676;51.202;6.774;2023-08-24T04:49:38;24.50;63.00
29775;DHT22;16676;51.202;6.774;2023-08-24T04:53:40;24.30;63.10
29775;DHT22;16676;51.202;6.774;2023-08-24T04:57:43;24.20;63.60
29775;DHT22;16676;51.202;6.774;2023-08-24T05:01:45;24.20;64.40
29775;DHT22;16676;51.202;6.774;2023-08-24T05:05:47;24.20;64.30
29775;DHT22;16676;51.202;6.774;2023-08-24T05:09:49;24.20;64.30
29775;DHT22;16676;51.202;6.774;2023-08-24T05:13:53;24.20;65.60
29775;DHT22;16676;51.202;6.774;2023-08-24T05:17:55;24.10;64.90
29775;DHT22;16676;51.202;6.774;2023-08-24T05:21:59;24.10;65.40
29775;DHT22;16676;51.202;6.774;2023-08-24T05:26:02;24.00;65.30
29775;DHT22;16676;51.202;6.774;2023-08-24T05:30:07;24.00;65.50
29775;DHT22;16676;51.202;6.774;2023-08-24T05:34:09;23.90;65.80
29775;DHT22;16676;51.202;6.774;2023-08-24T05:38:11;23.90;65.90
29775;DHT22;16676;51.202;6.774;2023-08-24T05:42:13;23.90;66.00
29775;DHT22;16676;51.202;6.774;2023-08-24T05:46:16;23.90;66.20
29775;DHT22;16676;51.202;6.774;2023-08-24T05:50:18;23.90;66.60
29775;DHT22;16676;51.202;6.774;2023-08-24T05:54:20;23.90;67.10
29775;DHT22;16676;51.202;6.774;2023-08-24T05:58:21;23.90;66.60
29775;DHT22;16676;51.202;6.774;2023-08-24T06:02:25;23.90;67.20
29775;DHT22;16676;51.202;6.774;2023-08-24T06:06:27;23.80;67.10
29775;DHT22;16676;51.202;6.774;2023-08-24T06:10:29;23.80;67.20
29775;DHT22;16676;51.202;6.774;2023-08-24T06:14:31;23.80;67.00
29775;DHT22;16676;51.202;6.774;2023-08-24T06:18:34;23.80;67.30
29775;DHT22;16676;51.202;6.774;2023-08-24T06:22:37;23.80;67.50
29775;DHT22;16676;51.202;6.774;2023-08-24T06:26:39;23.80;67.70
29775;DHT22;16676;51.202;6.774;2023-08-24T06:30:41;23.80;68.00
29775;DHT22;16676;51.202;6.774;2023-08-24T06:34:46;23.80;68.10
29775;DHT22;16676;51.202;6.774;2023-08-24T06:38:48;23.80;68.10
29775;DHT22;16676;51.202;6.774;2023-08-24T06:42:50;23.90;68.30
29775;DHT22;16676;51.202;6.774;2023-08-24T06:46:52;23.90;68.90
29775;DHT22;16676;51.202;6.774;2023-08-24T06:50:55;23.90;69.20
29775;DHT22;16676;51.202;6.774;2023-08-24T06:54:57;24.00;69.00
29775;DHT22;16676;51.202;6.774;2023-08-24T06:58:59;24.00;68.80
29775;DHT22;16676;51.202;6.774;2023-08-24T07:03:01;24.10;69.30
29775;DHT22;16676;51.202;6.774;2023-08-24T07:07:05;24.10;68.80
29775;DHT22;16676;51.202;6.774;2023-08-24T07:11:07;24.20;68.30
29775;DHT22;16676;51.202;6.774;2023-08-24T07:15:09;24.20;68.30
29775;DHT22;16676;51.202;6.774;2023-08-24T07:19:11;24.30;68.40
29775;DHT22;16676;51.202;6.774;2023-08-24T07:23:14;24.40;68.20
29775;DHT22;16676;51.202;6.774;2023-08-24T07:27:16;24.40;68.00
29775;DHT22;16676;51.202;6.774;2023-08-24T07:31:18;24.50;68.10
29775;DHT22;16676;51.202;6.774;2023-08-24T07:35:20;24.50;67.80
29775;DHT22;16676;51.202;6.774;2023-08-24T07:39:26;24.50;67.90
29775;DHT22;16676;51.202;6.774;2023-08-24T07:43:28;24.60;67.70
29775;DHT22;16676;51.202;6.774;2023-08-24T07:47:31;24.70;68.50
29775;DHT22;16676;51.202;6.774;2023-08-24T07:51:33;24.70;67.30
29775;DHT22;16676;51.202;6.774;2023-08-24T07:55:36;24.70;67.10
29775;DHT22;16676;51.202;6.774;2023-08-24T07:59:38;24.80;66.90
29775;DHT22;16676;51.202;6.774;2023-08-24T08:03:40;24.90;67.00
29775;DHT22;16676;51.202;6.774;2023-08-24T08:07:42;25.00;66.70
29775;DHT22;16676;51.202;6.774;2023-08-24T08:11:45;25.10;66.80
29775;DHT22;16676;51.202;6.774;2023-08-24T08:15:47;25.10;65.70
29775;DHT22;16676;51.202;6.774;2023-08-24T08:19:49;25.20;65.40
29775;DHT22;16676;51.202;6.774;2023-08-24T08:23:55;25.20;65.40
29775;DHT22;16676;51.202;6.774;2023-08-24T08:27:58;25.30;65.00
29775;DHT22;16676;51.202;6.774;2023-08-24T08:32:00;25.40;64.40
29775;DHT22;16676;51.202;6.774;2023-08-24T08:36:03;25.40;64.80
29775;DHT22;16676;51.202;6.774;2023-08-24T08:40:10;25.40;65.10
29775;DHT22;16676;51.202;6.774;2023-08-24T08:44:14;25.50;64.50
29775;DHT22;16676;51.202;6.774;2023-08-24T08:48:16;25.50;63.80
29775;DHT22;16676;51.202;6.774;2023-08-24T08:52:18;25.50;63.50
29775;DHT22;16676;51.202;6.774;2023-08-24T08:56:20;25.50;63.20
29775;DHT22;16676;51.202;6.774;2023-08-24T09:00:24;25.60;63.10
29775;DHT22;16676;51.202;6.774;2023-08-24T09:04:27;25.70;63.20
29775;DHT22;16676;51.202;6.774;2023-08-24T09:08:29;25.70;62.60
29775;DHT22;16676;51.202;6.774;2023-08-24T09:12:32;25.70;62.50
29775;DHT22;16676;51.202;6.774;2023-08-24T09:16:35;25.70;61.90
29775;DHT22;16676;51.202;6.774;2023-08-24T09:20:37;25.70;61.70
29775;DHT22;16676;51.202;6.774;2023-08-24T09:24:39;25.80;61.80
29775;DHT22;16676;51.202;6.774;2023-08-24T09:28:42;25.80;61.70
29775;DHT22;16676;51.202;6.774;2023-08-24T09:32:46;25.90;61.70
29775;DHT22;16676;51.202;6.774;2023-08-24T09:36:47;25.90;61.60
29775;DHT22;16676;51.202;6.774;2023-08-24T09:40:51;26.00;61.70
29775;DHT22;16676;51.202;6.774;2023-08-24T09:44:53;26.00;61.60
29775;DHT22;16676;51.202;6.774;2023-08-24T09:48:56;26.10;61.20
29775;DHT22;16676;51.202;6.774;2023-08-24T09:53:02;26.10;61.80
29775;DHT22;16676;51.202;6.774;2023-08-24T09:57:06;26.10;61.20
29775;DHT22;16676;51.202;6.774;2023-08-24T10:01:09;26.20;61.20
29775;DHT22;16676;51.202;6.774;2023-08-24T10:05:13;26.20;61.50
29775;DHT22;16676;51.202;6.774;2023-08-24T10:09:25;26.20;61.20
29775;DHT22;16676;51.202;6.774;2023-08-24T10:13:34;26.30;61.00
29775;DHT22;16676;51.202;6.774;2023-08-24T10:17:38;26.40;60.70
29775;DHT22;16676;51.202;6.774;2023-08-24T10:21:43;26.50;60.70
29775;DHT22;16676;51.202;6.774;2023-08-24T10:25:46;26.40;60.50
29775;DHT22;16676;51.202;6.774;2023-08-24T10:29:48;26.50;60.50
29775;DHT22;16676;51.202;6.774;2023-08-24T10:33:51;26.50;60.50
29775;DHT22;16676;51.202;6.774;2023-08-24T10:37:58;26.60;60.40
29775;DHT22;16676;51.202;6.774;2023-08-24T10:42:01;26.60;60.40
29775;DHT22;16676;51.202;6.774;2023-08-24T10:46:03;26.60;60.10
29775;DHT22;16676;51.202;6.774;2023-08-24T10:50:06;26.60;60.10
29775;DHT22;16676;51.202;6.774;2023-08-24T10:54:09;26.60;60.10
29775;DHT22;16676;51.202;6.774;2023-08-24T10:58:15;26.60;59.90
29775;DHT22;16676;51.202;6.774;2023-08-24T11:02:19;26.70;60.20
29775;DHT22;16676;51.202;6.774;2023-08-24T11:06:22;26.70;60.10
29775;DHT22;16676;51.202;6.774;2023-08-24T11:10:31;26.80;60.20
29775;DHT22;16676;51.202;6.774;2023-08-24T11:14:48;26.90;60.40
29775;DHT22;16676;51.202;6.774;2023-08-24T11:18:52;26.80;60.00
29775;DHT22;16676;51.202;6.774;2023-08-24T11:22:55;26.80;60.10
29775;DHT22;16676;51.202;6.774;2023-08-24T11:26:59;26.90;60.10
29775;DHT22;16676;51.202;6.774;2023-08-24T11:31:03;27.00;60.30
29775;DHT22;16676;51.202;6.774;2023-08-24T11:35:06;27.00;60.20
29775;DHT22;16676;51.202;6.774;2023-08-24T11:39:15;27.00;60.50
29775;DHT22;16676;51.202;6.774;2023-08-24T11:43:24;27.00;60.60
29775;DHT22;16676;51.202;6.774;2023-08-24T11:47:28;27.00;60.90
29775;DHT22;16676;51.202;6.774;2023-08-24T11:51:30;27.00;61.10
29775;DHT22;16676;51.202;6.774;2023-08-24T11:55:33;27.00;60.80
29775;DHT22;16676;51.202;6.774;2023-08-24T11:59:37;27.10;59.80
29775;DHT22;16676;51.202;6.774;2023-08-24T12:03:40;27.10;58.90
29775;DHT22;16676;51.202;6.774;2023-08-24T12:07:45;27.10;58.50
29775;DHT22;16676;51.202;6.774;2023-08-24T12:11:47;27.00;58.60
29775;DHT22;16676;51.202;6.774;2023-08-24T12:15:52;27.10;58.90
29775;DHT22;16676;51.202;6.774;2023-08-24T12:19:58;27.10;59.30
29775;DHT22;16676;51.202;6.774;2023-08-24T12:24:01;27.00;60.10
29775;DHT22;16676;51.202;6.774;2023-08-24T12:28:09;27.10;61.30
29775;DHT22;16676;51.202;6.774;2023-08-24T12:32:12;27.20;62.30
29775;DHT22;16676;51.202;6.774;2023-08-24T12:36:16;27.30;62.90
29775;DHT22;16676;51.202;6.774;2023-08-24T12:40:18;27.30;63.30
29775;DHT22;16676;51.202;6.774;2023-08-24T12:44:22;27.30;62.50
29775;DHT22;16676;51.202;6.774;2023-08-24T12:48:26;27.30;64.00
29775;DHT22;16676;51.202;6.774;2023-08-24T12:52:28;27.30;64.50
29775;DHT22;16676;51.202;6.774;2023-08-24T12:56:30;27.30;64.60
29775;DHT22;16676;51.202;6.774;2023-08-24T13:00:32;27.40;66.20
29775;DHT22;16676;51.202;6.774;2023-08-24T13:04:35;27.30;64.70
29775;DHT22;16676;51.202;6.774;2023-08-24T13:08:37;27.30;65.20
29775;DHT22;16676;51.202;6.774;2023-08-24T13:12:39;27.30;65.70
29775;DHT22;16676;51.202;6.774;2023-08-24T13:16:41;27.30;65.90
29775;DHT22;16676;51.202;6.774;2023-08-24T13:20:44;27.30;65.70
29775;DHT22;16676;51.202;6.774;2023-08-24T13:24:46;27.30;66.80
29775;DHT22;16676;51.202;6.774;2023-08-24T13:28:48;27.30;66.50
29775;DHT22;16676;51.202;6.774;2023-08-24T13:32:50;27.30;66.40
29775;DHT22;16676;51.202;6.774;2023-08-24T13:36:53;27.30;67.00
29775;DHT22;16676;51.202;6.774;2023-08-24T13:40:55;27.30;66.90
29775;DHT22;16676;51.202;6.774;2023-08-24T13:44:57;27.30;67.20
29775;DHT22;16676;51.202;6.774;2023-08-24T13:48:59;27.30;67.20
29775;DHT22;16676;51.202;6.774;2023-08-24T13:53:03;27.30;68.50
29775;DHT22;16676;51.202;6.774;2023-08-24T13:57:05;27.30;68.40
29775;DHT22;16676;51.202;6.774;2023-08-24T14:01:07;27.40;67.60
29775;DHT22;16676;51.202;6.774;2023-08-24T14:05:11;27.30;67.50
29775;DHT22;16676;51.202;6.774;2023-08-24T14:09:15;27.30;70.00
29775;DHT22;16676;51.202;6.774;2023-08-24T14:13:17;27.30;69.30
29775;DHT22;16676;51.202;6.774;2023-08-24T14:17:19;27.30;69.70
29775;DHT22;16676;51.202;6.774;2023-08-24T14:21:21;27.30;69.30
29775;DHT22;16676;51.202;6.774;2023-08-24T14:25:25;27.30;69.80
29775;DHT22;16676;51.202;6.774;2023-08-24T14:29:27;27.40;70.80
29775;DHT22;16676;51.202;6.774;2023-08-24T14:33:29;27.30;69.20
29775;DHT22;16676;51.202;6.774;2023-08-24T14:37:31;27.30;70.80
29775;DHT22;16676;51.202;6.774;2023-08-24T14:41:35;27.20;69.50
29775;DHT22;16676;51.202;6.774;2023-08-24T14:45:37;27.20;70.60
29775;DHT22;16676;51.202;6.774;2023-08-24T14:49:39;27.20;70.30
29775;DHT22;16676;51.202;6.774;2023-08-24T14:53:41;27.10;70.90
29775;DHT22;16676;51.202;6.774;2023-08-24T14:57:45;27.00;71.50
29775;DHT22;16676;51.202;6.774;2023-08-24T15:01:47;27.00;71.60
29775;DHT22;16676;51.202;6.774;2023-08-24T15:05:57;26.90;71.80
29775;DHT22;16676;51.202;6.774;2023-08-24T15:09:59;26.90;71.80
29775;DHT22;16676;51.202;6.774;2023-08-24T15:14:03;26.80;72.10
29775;DHT22;16676;51.202;6.774;2023-08-24T15:18:05;26.80;71.90
29775;DHT22;16676;51.202;6.774;2023-08-24T15:22:07;26.70;72.70
29775;DHT22;16676;51.202;6.774;2023-08-24T15:26:09;26.70;72.50
29775;DHT22;16676;51.202;6.774;2023-08-24T15:30:13;26.60;72.70
29775;DHT22;16676;51.202;6.774;2023-08-24T15:34:14;26.50;73.00
29775;DHT22;16676;51.202;6.774;2023-08-24T15:38:16;26.50;73.00
29775;DHT22;16676;51.202;6.774;2023-08-24T15:42:18;26.50;74.00
29775;DHT22;16676;51.202;6.774;2023-08-24T15:46:22;26.50;74.70
29775;DHT22;16676;51.202;6.774;2023-08-24T15:50:24;26.40;74.70
29775;DHT22;16676;51.202;6.774;2023-08-24T15:54:26;26.40;76.10
29775;DHT22;16676;51.202;6.774;2023-08-24T15:58:28;26.40;75.00
29775;DHT22;16676;51.202;6.774;2023-08-24T16:02:31;26.30;75.20
29775;DHT22;16676;51.202;6.774;2023-08-24T16:06:33;26.20;76.50
29775;DHT22;16676;51.202;6.774;2023-08-24T16:10:35;26.20;76.70
29775;DHT22;16676;51.202;6.774;2023-08-24T16:14:37;26.20;76.50
29775;DHT22;16676;51.202;6.774;2023-08-24T16:18:41;26.10;76.80
29775;DHT22;16676;51.202;6.774;2023-08-24T16:22:42;26.10;77.10
29775;DHT22;16676;51.202;6.774;2023-08-24T16:26:44;26.10;77.30
29775;DHT22;16676;51.202;6.774;2023-08-24T16:30:46;26.10;78.20
29775;DHT22;16676;51.202;6.774;2023-08-24T16:34:50;26.10;77.50
29775;DHT22;16676;51.202;6.774;2023-08-24T16:38:52;26.00;77.70
29775;DHT22;16676;51.202;6.774;2023-08-24T16:42:54;26.00;78.10
29775;DHT22;16676;51.202;6.774;2023-08-24T16:46:56;26.00;77.60
29775;DHT22;16676;51.202;6.774;2023-08-24T16:50:59;25.90;77.30
29775;DHT22;16676;51.202;6.774;2023-08-24T16:55:01;25.90;77.50
29775;DHT22;16676;51.202;6.774;2023-08-24T16:59:04;25.90;77.40
29775;DHT22;16676;51.202;6.774;2023-08-24T17:03:06;25.90;77.40
29775;DHT22;16676;51.202;6.774;2023-08-24T17:07:10;26.00;77.50
29775;DHT22;16676;51.202;6.774;2023-08-24T17:11:12;26.00;77.90
29775;DHT22;16676;51.202;6.774;2023-08-24T17:15:14;26.00;77.70
29775;DHT22;16676;51.202;6.774;2023-08-24T17:19:16;26.00;78.30
29775;DHT22;16676;51.202;6.774;2023-08-24T17:23:20;26.00;77.50
29775;DHT22;16676;51.202;6.774;2023-08-24T17:27:21;26.00;78.00
29775;DHT22;16676;51.202;6.774;2023-08-24T17:31:23;26.10;77.50
29775;DHT22;16676;51.202;6.774;2023-08-24T17:35:25;26.20;76.70
29775;DHT22;16676;51.202;6.774;2023-08-24T17:39:29;26.10;76.90
29775;DHT22;16676;51.202;6.774;2023-08-24T17:43:31;26.00;77.50
29775;DHT22;16676;51.202;6.774;2023-08-24T17:47:37;25.90;77.80
29775;DHT22;16676;51.202;6.774;2023-08-24T17:51:39;25.90;78.30
29775;DHT22;16676;51.202;6.774;2023-08-24T17:55:42;25.90;78.60
29775;DHT22;16676;51.202;6.774;2023-08-24T17:59:44;25.90;78.80
29775;DHT22;16676;51.202;6.774;2023-08-24T18:03:46;25.80;79.10
29775;DHT22;16676;51.202;6.774;2023-08-24T18:07:48;25.80;79.70
29775;DHT22;16676;51.202;6.774;2023-08-24T18:11:51;25.80;79.60
29775;DHT22;16676;51.202;6.774;2023-08-24T18:15:53;25.80;79.50
29775;DHT22;16676;51.202;6.774;2023-08-24T18:19:55;25.80;80.30
29775;DHT22;16676;51.202;6.774;2023-08-24T18:23:57;25.80;80.30
29775;DHT22;16676;51.202;6.774;2023-08-24T18:28:01;25.70;80.00
29775;DHT22;16676;51.202;6.774;2023-08-24T18:32:03;25.80;79.60
29775;DHT22;16676;51.202;6.774;2023-08-24T18:36:05;25.80;79.00
29775;DHT22;16676;51.202;6.774;2023-08-24T18:40:08;25.80;79.50
29775;DHT22;16676;51.202;6.774;2023-08-24T18:44:11;25.80;79.70
29775;DHT22;16676;51.202;6.774;2023-08-24T18:48:14;25.80;79.80
29775;DHT22;16676;51.202;6.774;2023-08-24T18:52:16;25.70;79.40
29775;DHT22;16676;51.202;6.774;2023-08-24T18:56:18;25.80;79.50
29775;DHT22;16676;51.202;6.774;2023-08-24T19:00:21;25.80;79.80
29775;DHT22;16676;51.202;6.774;2023-08-24T19:04:23;25.80;79.40
29775;DHT22;16676;51.202;6.774;2023-08-24T19:08:25;25.80;80.10
29775;DHT22;16676;51.202;6.774;2023-08-24T19:12:27;25.70;79.90
29775;DHT22;16676;51.202;6.774;2023-08-24T19:16:30;25.70;79.70
29775;DHT22;16676;51.202;6.774;2023-08-24T19:20:32;25.70;80.20
29775;DHT22;16676;51.202;6.774;2023-08-24T19:24:34;25.60;80.30
29775;DHT22;16676;51.202;6.774;2023-08-24T19:28:36;25.60;80.30
29775;DHT22;16676;51.202;6.774;2023-08-24T19:32:39;25.50;80.60
29775;DHT22;16676;51.202;6.774;2023-08-24T19:36:41;25.60;79.80
29775;DHT22;16676;51.202;6.774;2023-08-24T19:40:43;25.50;79.70
29775;DHT22;16676;51.202;6.774;2023-08-24T19:44:45;25.60;79.80
29775;DHT22;16676;51.202;6.774;2023-08-24T19:48:48;25.60;80.40
29775;DHT22;16676;51.202;6.774;2023-08-24T19:52:51;25.60;80.30
29775;DHT22;16676;51.202;6.774;2023-08-24T19:56:53;25.60;80.10
29775;DHT22;16676;51.202;6.774;2023-08-24T20:00:55;25.70;79.90
29775;DHT22;16676;51.202;6.774;2023-08-24T20:04:58;25.60;80.20
29775;DHT22;16676;51.202;6.774;2023-08-24T20:09:00;25.60;80.30
29775;DHT22;16676;51.202;6.774;2023-08-24T20:13:03;25.50;80.80
29775;DHT22;16676;51.202;6.774;2023-08-24T20:17:05;25.50;80.90
29775;DHT22;16676;51.202;6.774;2023-08-24T20:21:08;25.60;80.30
29775;DHT22;16676;51.202;6.774;2023-08-24T20:25:12;25.60;80.10
29775;DHT22;16676;51.202;6.774;2023-08-24T20:29:14;25.60;80.20
29775;DHT22;16676;51.202;6.774;2023-08-24T20:33:15;25.50;80.20
29775;DHT22;16676;51.202;6.774;2023-08-24T20:37:19;25.50;80.10
29775;DHT22;16676;51.202;6.774;2023-08-24T20:41:21;25.50;80.50
29775;DHT22;16676;51.202;6.774;2023-08-24T20:45:23;25.50;81.10
29775;DHT22;16676;51.202;6.774;2023-08-24T20:49:25;25.50;80.20
29775;DHT22;16676;51.202;6.774;2023-08-24T20:53:28;25.50;80.70
29775;DHT22;16676;51.202;6.774;2023-08-24T20:57:30;25.40;81.20
29775;DHT22;16676;51.202;6.774;2023-08-24T21:01:33;25.40;81.30
29775;DHT22;16676;51.202;6.774;2023-08-24T21:05:35;25.40;81.10
29775;DHT22;16676;51.202;6.774;2023-08-24T21:09:38;25.40;81.30
29775;DHT22;16676;51.202;6.774;2023-08-24T21:13:40;25.30;81.50
29775;DHT22;16676;51.202;6.774;2023-08-24T21:17:42;25.40;80.30
29775;DHT22;16676;51.202;6.774;2023-08-24T21:21:44;25.40;80.50
29775;DHT22;16676;51.202;6.774;2023-08-24T21:25:47;25.30;81.30
29775;DHT22;16676;51.202;6.774;2023-08-24T21:29:49;25.40;81.40
29775;DHT22;16676;51.202;6.774;2023-08-24T21:33:52;25.40;80.00
29775;DHT22;16676;51.202;6.774;2023-08-24T21:37:54;25.40;80.30
29775;DHT22;16676;51.202;6.774;2023-08-24T21:41:57;25.40;80.50
29775;DHT22;16676;51.202;6.774;2023-08-24T21:45:59;25.40;80.70
29775;DHT22;16676;51.202;6.774;2023-08-24T21:50:02;25.40;81.20
29775;DHT22;16676;51.202;6.774;2023-08-24T21:54:05;25.30;81.40
29775;DHT22;16676;51.202;6.774;2023-08-24T21:58:08;25.40;80.50
29775;DHT22;16676;51.202;6.774;2023-08-24T22:02:13;25.40;81.40
29775;DHT22;16676;51.202;6.774;2023-08-24T22:06:15;25.40;81.20
29775;DHT22;16676;51.202;6.774;2023-08-24T22:10:17;25.40;81.70
29775;DHT22;16676;51.202;6.774;2023-08-24T22:14:20;25.30;81.20
29775;DHT22;16676;51.202;6.774;2023-08-24T22:18:22;25.40;80.60
29775;DHT22;16676;51.202;6.774;2023-08-24T22:22:24;25.40;81.30
29775;DHT22;16676;51.202;6.774;2023-08-24T22:26:26;25.30;82.10
29775;DHT22;16676;51.202;6.774;2023-08-24T22:30:29;25.30;81.70
29775;DHT22;16676;51.202;6.774;2023-08-24T22:34:31;25.20;82.00
29775;DHT22;16676;51.202;6.774;2023-08-24T22:38:33;25.20;83.00
29775;DHT22;16676;51.202;6.774;2023-08-24T22:42:35;25.10;82.70
29775;DHT22;16676;51.202;6.774;2023-08-24T22:46:38;25.10;83.30
29775;DHT22;16676;51.202;6.774;2023-08-24T22:50:41;25.00;83.50
29775;DHT22;16676;51.202;6.774;2023-08-24T22:54:43;25.00;83.90
29775;DHT22;16676;51.202;6.774;2023-08-24T22:58:45;25.00;83.30
29775;DHT22;16676;51.202;6.774;2023-08-24T23:02:48;25.00;83.80
29775;DHT22;16676;51.202;6.774;2023-08-24T23:07:03;25.00;84.20
29775;DHT22;16676;51.202;6.774;2023-08-24T23:11:05;24.90;84.70
29775;DHT22;16676;51.202;6.774;2023-08-24T23:15:08;25.00;84.50
29775;DHT22;16676;51.202;6.774;2023-08-24T23:19:13;25.00;83.90
29775;DHT22;16676;51.202;6.774;2023-08-24T23:23:15;25.10;82.80
29775;DHT22;16676;51.202;6.774;2023-08-24T23:27:16;25.10;83.00
29775;DHT22;16676;51.202;6.774;2023-08-24T23:31:18;25.00;83.20
29775;DHT22;16676;51.202;6.774;2023-08-24T23:35:22;25.00;83.60
29775;DHT22;16676;51.202;6.774;2023-08-24T23:39:24;25.00;83.60
29775;DHT22;16676;51.202;6.774;2023-08-24T23:43:26;24.90;84.00
29775;DHT22;16676;51.202;6.774;2023-08-24T23:47:28;24.90;83.70
29775;DHT22;16676;51.202;6.774;2023-08-24T23:51:31;24.90;83.70
29775;DHT22;16676;51.202;6.774;2023-08-24T23:55:33;24.90;84.00
29775;DHT22;16676;51.202;6.774;2023-08-24T23:59:35;24.80;84.20
